Time;durP1;ratioP1;P1;durP2;ratioP2;P2;SDS_P1;SDS_P2;PMS_P1;PMS_P2;Temp;Humidity;BMP_temperature;BMP_pressure;BME280_temperature;BME280_humidity;BME280_pressure;Samples;Min_cycle;Max_cycle;Signal;HPM_P1;HPM_P2
2023/03/29 00:04:43;;;;;;;6.32;4.78;;;;;;;4.21;100.00;101480.69;10364103;28;20125;-75
2023/03/29 00:09:44;;;;;;;6.15;4.28;;;;;;;4.22;100.00;101475.66;10367118;28;20057;-75
2023/03/29 00:14:45;;;;;;;6.03;3.85;;;;;;;4.19;100.00;101484.84;10330355;28;20046;-76
2023/03/29 00:19:46;;;;;;;6.18;3.40;;;;;;;4.14;100.00;101461.16;10295219;28;20125;-75
2023/03/29 00:24:47;;;;;;;5.80;3.10;;;;;;;4.14;100.00;101466.34;10323837;28;20038;-75
2023/03/29 00:29:48;;;;;;;9.40;4.23;;;;;;;4.16;100.00;101458.69;10308206;28;20369;-76
2023/03/29 00:34:49;;;;;;;7.07;3.92;;;;;;;4.19;100.00;101453.75;10328757;28;20115;-75
2023/03/29 00:39:50;;;;;;;8.23;3.13;;;;;;;4.19;100.00;101451.16;10315162;28;20069;-76
2023/03/29 00:45:19;;;;;;;6.78;3.47;;;;;;;4.22;100.00;101446.22;10320794;28;20121;-75
2023/03/29 00:50:28;;;;;;;6.18;3.40;;;;;;;4.18;100.00;101426.97;10366907;28;20416;-76
2023/03/29 00:55:31;;;;;;;7.68;4.38;;;;;;;4.17;100.00;101442.34;10363576;28;20041;-76
2023/03/29 01:00:35;;;;;;;6.60;3.35;;;;;;;4.21;100.00;101434.06;10363249;28;20397;-76
2023/03/29 01:05:38;;;;;;;10.07;3.17;;;;;;;4.18;100.00;101423.44;10347996;28;20042;-76
2023/03/29 01:10:48;;;;;;;9.60;3.60;;;;;;;4.23;100.00;101414.34;10370985;28;20526;-75
2023/03/29 01:15:48;;;;;;;6.75;3.63;;;;;;;4.22;100.00;101404.78;10345766;28;20041;-75
2023/03/29 01:21:08;;;;;;;5.38;3.13;;;;;;;4.20;100.00;101415.03;10345584;28;20037;-75
2023/03/29 01:26:12;;;;;;;7.35;2.55;;;;;;;4.24;100.00;101411.00;10348036;28;20057;-75
2023/03/29 01:31:21;;;;;;;8.10;3.60;;;;;;;4.24;100.00;101411.91;10377707;28;20543;-76
2023/03/29 01:36:25;;;;;;;6.53;2.70;;;;;;;4.25;100.00;101400.75;10344930;28;20092;-75
2023/03/29 01:41:41;;;;;;;7.72;2.97;;;;;;;4.32;100.00;101407.34;10376855;28;20041;-76
2023/03/29 01:46:46;;;;;;;6.95;3.38;;;;;;;4.44;100.00;101404.84;10377455;28;20520;-75
2023/03/29 01:52:06;;;;;;;9.13;3.35;;;;;;;4.44;100.00;101388.38;10367910;28;20627;-76
2023/03/29 01:57:06;;;;;;;11.93;3.97;;;;;;;4.40;100.00;101369.09;10383631;28;20578;-75
2023/03/29 02:02:10;;;;;;;6.30;3.90;;;;;;;4.44;100.00;101370.22;10358301;28;20073;-75
2023/03/29 02:07:10;;;;;;;6.05;3.25;;;;;;;4.45;100.00;101375.56;10382881;28;20108;-75
2023/03/29 02:12:11;;;;;;;4.00;3.38;;;;;;;4.41;100.00;101353.66;10371754;28;20450;-76
2023/03/29 02:17:18;;;;;;;5.20;3.42;;;;;;;4.41;100.00;101352.78;10413092;28;20049;-75
2023/03/29 02:22:34;;;;;;;5.95;4.03;;;;;;;4.44;100.00;101352.09;10394241;28;20068;-76
2023/03/29 02:27:36;;;;;;;8.82;3.08;;;;;;;4.47;100.00;101352.34;10365642;28;20037;-75
2023/03/29 02:32:55;;;;;;;;;;;;;;;4.50;100.00;101361.28;10398699;28;20042;-75
2023/03/29 02:37:56;;;;;;;7.45;3.78;;;;;;;4.48;100.00;101347.28;10386537;28;20327;-76
2023/03/29 02:42:56;;;;;;;6.93;3.28;;;;;;;4.52;100.00;101353.59;10357702;28;20034;-76
2023/03/29 02:47:59;;;;;;;6.75;4.47;;;;;;;4.49;100.00;101353.38;10389558;28;20121;-75
2023/03/29 02:53:01;;;;;;;7.47;2.88;;;;;;;4.46;100.00;101342.75;10388444;28;20054;-75
2023/03/29 02:58:06;;;;;;;5.63;3.05;;;;;;;4.43;100.00;101329.53;10329658;28;20050;-75
2023/03/29 03:03:07;;;;;;;6.05;3.80;;;;;;;4.37;100.00;101329.97;10362038;28;20041;-75
2023/03/29 03:08:07;;;;;;;10.00;3.17;;;;;;;4.34;100.00;101322.84;10410740;28;20080;-75
2023/03/29 03:13:08;;;;;;;6.78;3.53;;;;;;;4.33;100.00;101315.84;10385064;28;20709;-75
2023/03/29 03:18:09;;;;;;;8.00;3.17;;;;;;;4.33;100.00;101302.91;10373447;28;20061;-75
2023/03/29 03:23:09;;;;;;;5.40;3.65;;;;;;;4.34;100.00;101299.53;10399868;28;20037;-74
2023/03/29 03:28:11;;;;;;;5.32;3.15;;;;;;;4.35;100.00;101298.75;10398995;28;20458;-75
2023/03/29 03:33:11;;;;;;;7.57;3.67;;;;;;;4.40;100.00;101299.13;10383447;28;20499;-75
2023/03/29 03:38:12;;;;;;;9.50;4.80;;;;;;;4.44;100.00;101296.00;10325198;28;20368;-75
2023/03/29 03:43:13;;;;;;;7.65;4.70;;;;;;;4.47;100.00;101292.72;10377386;28;20457;-75
2023/03/29 03:48:13;;;;;;;6.07;3.25;;;;;;;4.49;100.00;101301.53;10350852;28;20121;-75
2023/03/29 03:53:13;;;;;;;7.45;3.83;;;;;;;4.48;100.00;101308.41;10390390;28;20107;-75
2023/03/29 03:58:15;;;;;;;6.70;3.95;;;;;;;4.54;100.00;101298.53;10355799;28;20069;-75
2023/03/29 04:03:16;;;;;;;6.30;3.40;;;;;;;4.57;100.00;101307.31;10356472;28;20459;-74
2023/03/29 04:08:16;;;;;;;5.50;3.45;;;;;;;4.57;100.00;101307.31;10372520;28;20049;-75
2023/03/29 04:13:17;;;;;;;4.65;2.78;;;;;;;4.60;100.00;101299.78;10378459;28;20481;-75
2023/03/29 04:18:17;;;;;;;5.35;3.85;;;;;;;4.62;100.00;101291.34;10393394;28;20057;-75
2023/03/29 04:23:18;;;;;;;5.45;2.92;;;;;;;4.69;100.00;101285.84;10368432;28;20125;-75
2023/03/29 04:28:18;;;;;;;6.15;2.88;;;;;;;4.74;100.00;101281.03;10385470;28;20445;-75
2023/03/29 04:33:20;;;;;;;7.28;2.83;;;;;;;4.76;100.00;101279.47;10373334;28;20081;-75
2023/03/29 04:38:21;;;;;;;9.68;4.90;;;;;;;4.79;100.00;101279.69;10347998;28;20046;-76
2023/03/29 04:43:22;;;;;;;15.15;9.43;;;;;;;4.86;100.00;101275.88;10366291;28;20144;-75
2023/03/29 04:48:23;;;;;;;5.50;3.15;;;;;;;4.91;100.00;101276.25;10360677;28;20064;-76
2023/03/29 04:53:23;;;;;;;7.95;4.43;;;;;;;4.96;100.00;101270.59;10378328;28;20474;-75
2023/03/29 04:58:25;;;;;;;4.43;2.78;;;;;;;4.98;100.00;101273.34;10373412;28;20046;-75
2023/03/29 05:03:26;;;;;;;5.68;3.00;;;;;;;4.98;100.00;101268.16;10357185;28;20117;-75
2023/03/29 05:08:26;;;;;;;4.97;2.72;;;;;;;4.99;100.00;101263.06;10396492;28;20046;-75
2023/03/29 05:13:27;;;;;;;7.40;3.63;;;;;;;4.97;100.00;101277.59;10363921;28;20121;-75
2023/03/29 05:18:28;;;;;;;6.97;3.85;;;;;;;5.03;100.00;101261.63;10366039;28;20478;-75
2023/03/29 05:23:29;;;;;;;5.40;3.45;;;;;;;5.09;100.00;101266.34;10359076;28;20509;-75
2023/03/29 05:28:30;;;;;;;5.28;2.65;;;;;;;5.20;100.00;101259.41;10360975;28;20122;-74
2023/03/29 05:33:30;;;;;;;4.97;2.67;;;;;;;5.42;100.00;101249.84;10396831;28;20146;-74
2023/03/29 05:38:34;;;;;;;7.68;3.50;;;;;;;5.50;100.00;101242.59;10362929;28;20042;-74
2023/03/29 05:43:35;;;;;;;5.70;3.65;;;;;;;5.66;100.00;101244.66;10361160;28;20030;-75
2023/03/29 05:48:36;;;;;;;5.20;2.75;;;;;;;5.89;100.00;101248.03;10348436;28;20034;-75
2023/03/29 05:53:37;;;;;;;5.88;3.55;;;;;;;6.12;100.00;101247.13;10370524;28;20123;-74
2023/03/29 05:58:38;;;;;;;11.50;5.45;;;;;;;6.32;100.00;101252.84;10371618;28;20192;-75
2023/03/29 06:03:38;;;;;;;12.25;5.80;;;;;;;6.43;100.00;101262.28;10365996;28;20133;-76
2023/03/29 06:08:39;;;;;;;7.47;3.35;;;;;;;6.54;100.00;101263.06;10357943;28;20111;-75
2023/03/29 06:13:40;;;;;;;9.85;3.25;;;;;;;6.53;100.00;101250.88;10373770;28;20549;-75
2023/03/29 06:18:41;;;;;;;5.32;3.35;;;;;;;6.81;100.00;101251.88;10394944;28;20489;-75
2023/03/29 06:23:42;;;;;;;6.03;2.20;;;;;;;6.93;100.00;101257.91;10362097;28;20184;-75
2023/03/29 06:28:42;;;;;;;3.42;2.17;;;;;;;6.97;100.00;101252.13;10358703;28;20042;-76
2023/03/29 06:33:43;;;;;;;6.57;3.47;;;;;;;7.02;100.00;101263.75;10359253;28;20120;-76
2023/03/29 06:38:44;;;;;;;5.20;3.10;;;;;;;7.07;100.00;101255.34;10361403;28;20064;-75
2023/03/29 06:43:46;;;;;;;7.75;4.20;;;;;;;7.10;100.00;101255.56;10357672;28;20045;-77
2023/03/29 06:48:47;;;;;;;6.63;2.78;;;;;;;7.04;100.00;101258.66;10358885;28;20049;-75
2023/03/29 06:53:47;;;;;;;5.20;2.90;;;;;;;7.09;100.00;101262.47;10360818;28;20046;-76
2023/03/29 06:58:48;;;;;;;5.38;3.17;;;;;;;7.34;100.00;101262.41;10357369;28;20129;-76
2023/03/29 07:03:48;;;;;;;4.95;2.28;;;;;;;7.60;100.00;101252.84;10369689;28;20111;-75
2023/03/29 07:08:51;;;;;;;6.13;2.75;;;;;;;7.86;100.00;101247.53;10352751;28;20034;-75
2023/03/29 07:13:51;;;;;;;8.77;3.55;;;;;;;8.13;100.00;101252.72;10370303;28;20436;-75
2023/03/29 07:18:52;;;;;;;4.88;2.55;;;;;;;8.43;100.00;101256.34;10370218;28;20034;-76
2023/03/29 07:23:52;;;;;;;9.43;3.05;;;;;;;8.74;100.00;101257.38;10380350;28;20042;-77
2023/03/29 07:28:53;;;;;;;7.30;3.60;;;;;;;8.96;100.00;101256.97;10371448;28;20385;-75
2023/03/29 07:33:54;;;;;;;8.10;3.22;;;;;;;9.06;100.00;101263.66;10361352;28;20121;-75
2023/03/29 07:39:00;;;;;;;8.05;3.13;;;;;;;9.34;100.00;101257.47;10367596;28;20042;-75
2023/03/29 07:44:07;;;;;;;9.93;3.22;;;;;;;9.73;100.00;101267.53;10355823;28;20057;-73
2023/03/29 07:49:08;;;;;;;10.93;5.20;;;;;;;9.99;100.00;101269.03;10364291;28;20034;-74
2023/03/29 07:54:09;;;;;;;8.85;2.47;;;;;;;10.08;100.00;101282.63;10345444;28;20482;-74
2023/03/29 07:59:10;;;;;;;9.27;3.87;;;;;;;9.99;100.00;101292.56;10377268;28;20389;-75
2023/03/29 08:04:10;;;;;;;6.93;3.47;;;;;;;9.78;100.00;101294.84;10375837;28;20120;-74
2023/03/29 08:09:11;;;;;;;15.05;9.10;;;;;;;9.53;100.00;101299.53;10377036;28;20124;-74
2023/03/29 08:14:12;;;;;;;8.23;3.22;;;;;;;9.44;100.00;101298.09;10381293;28;20084;-74
2023/03/29 08:19:13;;;;;;;8.52;3.13;;;;;;;9.44;100.00;101296.38;10357749;28;20061;-76
2023/03/29 08:24:13;;;;;;;7.63;3.03;;;;;;;9.48;100.00;101293.16;10365555;28;20085;-74
2023/03/29 08:29:14;;;;;;;6.50;3.83;;;;;;;9.51;100.00;101281.97;10357588;28;20039;-74
2023/03/29 08:34:18;;;;;;;6.10;4.43;;;;;;;9.57;100.00;101266.63;10325176;28;20520;-73
2023/03/29 08:39:18;;;;;;;7.95;3.05;;;;;;;9.69;100.00;101263.84;10345831;28;20054;-74
2023/03/29 08:44:22;;;;;;;6.22;3.75;;;;;;;9.79;100.00;101267.88;10360793;28;20153;-74
2023/03/29 08:49:22;;;;;;;12.98;3.55;;;;;;;10.29;100.00;101276.78;10371002;28;20037;-74
2023/03/29 08:54:39;;;;;;;5.65;3.22;;;;;;;11.09;100.00;101276.69;10363617;28;20125;-74
2023/03/29 08:59:39;;;;;;;8.77;3.17;;;;;;;11.70;100.00;101270.13;10362064;28;20330;-74
2023/03/29 09:04:41;;;;;;;5.85;2.90;;;;;;;12.49;100.00;101266.03;10379021;28;20109;-74
2023/03/29 09:09:41;;;;;;;7.67;3.57;;;;;;;12.45;100.00;101258.84;10385876;28;20496;-74
2023/03/29 09:14:55;;;;;;;7.53;2.97;;;;;;;12.30;100.00;101256.41;10383041;28;20034;-74
2023/03/29 09:20:22;;;;;;;6.30;5.15;;;;;;;12.79;100.00;101260.38;10378434;28;20103;-74
2023/03/29 09:25:42;;;;;;;8.55;3.42;;;;;;;12.33;100.00;101267.06;10385562;28;20121;-74
2023/03/29 09:31:04;;;;;;;10.13;3.13;;;;;;;12.00;100.00;101256.75;10374984;28;20433;-74
2023/03/29 09:36:30;;;;;;;7.60;3.30;;;;;;;12.14;100.00;101247.81;10376776;28;20597;-74
2023/03/29 09:41:37;;;;;;;9.52;3.83;;;;;;;12.48;100.00;101233.63;10381025;28;20054;-74
2023/03/29 09:46:42;;;;;;;7.68;2.90;;;;;;;12.98;100.00;101234.91;10369078;28;20125;-74
2023/03/29 09:51:43;;;;;;;32.75;4.88;;;;;;;12.97;100.00;101234.03;10367856;28;20090;-74
2023/03/29 09:56:44;;;;;;;8.68;4.18;;;;;;;13.02;100.00;101244.72;10338905;28;20034;-75
2023/03/29 10:01:44;;;;;;;8.10;3.58;;;;;;;13.11;100.00;101241.63;10342649;28;20138;-75
2023/03/29 10:06:48;;;;;;;6.28;3.58;;;;;;;13.19;100.00;101233.22;10361615;28;20469;-74
2023/03/29 10:11:52;;;;;;;8.90;4.25;;;;;;;13.44;100.00;101213.25;10339697;28;20034;-74
2023/03/29 10:16:56;;;;;;;4.53;2.65;;;;;;;13.35;100.00;101237.41;10343216;28;20037;-76
2023/03/29 10:21:58;;;;;;;9.05;4.25;;;;;;;12.90;100.00;101238.09;10356409;28;20046;-77
2023/03/29 10:27:01;;;;;;;5.22;2.72;;;;;;;12.55;100.00;101231.28;10362809;28;20354;-75
2023/03/29 10:32:01;;;;;;;7.78;3.58;;;;;;;12.91;100.00;101242.53;10344771;28;20041;-76
2023/03/29 10:37:02;;;;;;;8.18;2.75;;;;;;;13.56;100.00;101230.38;10359650;28;20041;-75
2023/03/29 10:42:02;;;;;;;6.57;3.25;;;;;;;13.38;100.00;101223.47;10359011;28;20044;-75
2023/03/29 10:47:18;;;;;;;8.32;3.85;;;;;;;13.65;100.00;101217.59;10337779;28;20121;-77
2023/03/29 10:52:18;;;;;;;8.35;4.07;;;;;;;13.68;100.00;101216.84;10356930;28;20053;-75
2023/03/29 10:57:32;;;;;;;8.48;2.95;;;;;;;13.43;100.00;101221.97;10343193;28;20371;-75
2023/03/29 11:02:43;;;;;;;4.15;2.72;;;;;;;13.67;100.00;101226.44;10338996;28;20500;-76
2023/03/29 11:07:46;;;;;;;8.23;3.03;;;;;;;14.42;100.00;101209.19;10359839;28;20171;-76
2023/03/29 11:13:11;;;;;;;8.60;3.88;;;;;;;14.98;100.00;101191.00;10382995;28;20494;-75
2023/03/29 11:18:49;;;;;;;11.80;3.97;;;;;;;15.33;100.00;101184.25;10318549;28;20038;-73
2023/03/29 11:23:59;;;;;;;7.43;2.65;;;;;;;14.85;100.00;101183.53;10355039;28;20100;-75
2023/03/29 11:29:08;;;;;;;9.13;2.70;;;;;;;14.34;100.00;101184.31;10356261;28;20089;-77
2023/03/29 11:34:24;;;;;;;3.97;2.50;;;;;;;14.68;100.00;101175.00;10354921;28;20045;-76
2023/03/29 11:40:05;;;;;;;10.50;2.92;;;;;;;14.91;100.00;101170.56;10351938;28;20049;-75
2023/03/29 11:45:12;;;;;;;9.63;3.03;;;;;;;16.51;98.94;101172.03;10352266;28;20038;-76
2023/03/29 11:50:24;;;;;;;11.07;3.05;;;;;;;17.39;96.20;101170.81;10372235;28;20068;-76
2023/03/29 11:55:31;;;;;;;5.32;2.53;;;;;;;16.52;91.33;101168.53;10341451;28;20034;-77
2023/03/29 12:00:35;;;;;;;6.00;2.90;;;;;;;15.48;100.00;101168.03;10348870;28;20444;-77
2023/03/29 12:05:42;;;;;;;6.30;3.58;;;;;;;16.72;100.00;101148.81;10365699;28;20548;-77
2023/03/29 12:10:48;;;;;;;10.98;4.75;;;;;;;17.85;92.88;101148.06;10348713;28;20121;-76
2023/03/29 12:15:56;;;;;;;8.25;5.22;;;;;;;17.74;90.75;101154.88;10348705;28;20033;-77
2023/03/29 12:21:05;;;;;;;6.45;3.85;;;;;;;16.21;99.09;101155.34;10348549;28;20387;-77
2023/03/29 12:26:31;;;;;;;7.25;3.35;;;;;;;16.65;99.03;101135.44;10332204;28;20061;-77
2023/03/29 12:32:05;;;;;;;6.78;3.20;;;;;;;16.66;100.00;101140.72;10364109;28;20394;-75
2023/03/29 12:37:06;;;;;;;6.40;3.03;;;;;;;16.05;100.00;101150.47;10364792;28;20105;-76
2023/03/29 12:42:17;;;;;;;4.65;2.70;;;;;;;16.03;100.00;101154.81;10364668;28;20109;-76
2023/03/29 12:47:22;;;;;;;8.87;3.30;;;;;;;16.41;100.00;101133.91;10345526;28;20050;-76
2023/03/29 12:52:29;;;;;;;6.47;3.10;;;;;;;16.27;100.00;101128.22;10335076;28;20366;-76
2023/03/29 12:57:41;;;;;;;11.65;3.28;;;;;;;15.78;100.00;101123.25;10421804;28;20042;-76
2023/03/29 13:02:44;;;;;;;4.82;2.50;;;;;;;15.97;100.00;101110.63;10362104;28;20046;-76
2023/03/29 13:07:46;;;;;;;4.78;2.08;;;;;;;17.78;100.00;101097.63;10360378;28;20041;-76
2023/03/29 13:12:48;;;;;;;4.28;2.47;;;;;;;17.71;92.17;101085.97;10399248;28;20057;-76
2023/03/29 13:17:51;;;;;;;6.95;2.63;;;;;;;17.61;91.36;101054.03;10341593;28;20037;-76
2023/03/29 13:23:19;;;;;;;4.47;2.03;;;;;;;17.43;93.37;101061.56;10363429;28;20045;-76
2023/03/29 13:28:27;;;;;;;6.65;2.35;;;;;;;17.15;99.56;101063.56;10354621;28;20066;-75
2023/03/29 13:33:34;;;;;;;3.70;2.00;;;;;;;16.96;100.00;101057.78;10352315;28;20108;-75
2023/03/29 13:38:47;;;;;;;4.97;2.10;;;;;;;16.65;100.00;101057.03;10367263;28;20577;-75
2023/03/29 13:43:51;;;;;;;3.10;1.95;;;;;;;16.27;100.00;101056.91;10336146;28;20041;-76
2023/03/29 13:49:19;;;;;;;4.15;2.22;;;;;;;16.12;100.00;101039.78;10359541;28;20086;-75
2023/03/29 13:54:25;;;;;;;4.72;2.65;;;;;;;15.98;100.00;101030.59;10355812;28;20092;-76
2023/03/29 13:59:34;;;;;;;9.18;2.45;;;;;;;16.34;100.00;101021.00;10369825;28;20513;-76
2023/03/29 14:04:42;;;;;;;8.10;2.55;;;;;;;16.41;100.00;101015.03;10360874;28;20485;-76
2023/03/29 14:09:44;;;;;;;5.47;2.13;;;;;;;16.53;100.00;101009.16;10345057;28;20037;-75
2023/03/29 14:14:45;;;;;;;4.95;2.03;;;;;;;16.82;100.00;101009.00;10345198;28;20115;-74
2023/03/29 14:19:46;;;;;;;3.85;1.75;;;;;;;16.66;100.00;101026.22;10366521;28;20046;-74
2023/03/29 14:24:50;;;;;;;10.13;2.20;;;;;;;15.91;100.00;101007.53;10329132;28;20458;-75
2023/03/29 14:29:52;;;;;;;4.18;2.17;;;;;;;15.93;100.00;101008.47;10361583;28;20034;-75
2023/03/29 14:34:52;;;;;;;7.43;1.90;;;;;;;15.78;100.00;100991.31;10357664;28;20041;-75
2023/03/29 14:39:53;;;;;;;4.97;2.08;;;;;;;15.70;100.00;100990.19;10388540;28;20489;-75
2023/03/29 14:45:03;;;;;;;6.40;2.97;;;;;;;15.45;100.00;100999.16;10363166;28;20065;-75
2023/03/29 14:50:04;;;;;;;3.40;2.72;;;;;;;15.27;100.00;100984.56;10390771;28;20109;-75
2023/03/29 14:55:06;;;;;;;6.22;2.63;;;;;;;15.27;100.00;100979.28;10360683;28;20041;-75
2023/03/29 15:00:25;;;;;;;2.23;1.23;;;;;;;15.32;100.00;100977.69;10358898;28;20038;-75
2023/03/29 15:05:28;;;;;;;5.63;1.90;;;;;;;15.33;100.00;100961.03;10368726;28;20045;-75
2023/03/29 15:10:32;;;;;;;4.00;1.77;;;;;;;15.54;100.00;100936.13;10356108;28;20185;-74
2023/03/29 15:15:35;;;;;;;5.50;2.22;;;;;;;15.59;100.00;100930.97;10356112;28;20409;-75
2023/03/29 15:20:37;;;;;;;4.70;1.80;;;;;;;15.98;100.00;100925.00;10346991;28;20544;-75
2023/03/29 15:25:53;;;;;;;2.97;1.20;;;;;;;16.24;100.00;100920.41;10355248;28;20390;-76
2023/03/29 15:30:58;;;;;;;5.80;2.28;;;;;;;16.34;100.00;100910.97;10328192;28;20089;-75
2023/03/29 15:35:58;;;;;;;4.65;1.73;;;;;;;16.22;100.00;100906.28;10363899;28;20049;-75
2023/03/29 15:40:59;;;;;;;4.38;1.70;;;;;;;16.14;100.00;100895.50;10349103;28;20121;-74
2023/03/29 15:46:00;;;;;;;3.67;1.27;;;;;;;16.08;100.00;100890.09;10346809;28;20042;-74
2023/03/29 15:51:01;;;;;;;4.15;1.38;;;;;;;15.73;100.00;100886.50;10366949;28;20045;-75
2023/03/29 15:56:02;;;;;;;1.98;1.00;;;;;;;15.60;100.00;100883.53;10362520;28;20608;-74
2023/03/29 16:01:33;;;;;;;2.90;1.33;;;;;;;15.45;100.00;100876.06;10366723;28;20049;-76
2023/03/29 16:06:33;;;;;;;10.88;5.60;;;;;;;15.32;100.00;100880.13;10361154;28;20042;-74
2023/03/29 16:11:34;;;;;;;2.60;1.13;;;;;;;15.23;100.00;100857.00;10367589;28;20132;-75
2023/03/29 16:16:35;;;;;;;3.33;1.02;;;;;;;15.21;100.00;100852.56;10376280;28;20494;-76
2023/03/29 16:21:35;;;;;;;1.65;0.98;;;;;;;15.18;100.00;100849.84;10360594;28;20124;-75
2023/03/29 16:26:37;;;;;;;4.05;1.30;;;;;;;15.16;100.00;100838.38;10365010;28;20136;-75
2023/03/29 16:31:38;;;;;;;5.78;1.63;;;;;;;15.05;100.00;100838.03;10361923;28;20034;-76
2023/03/29 16:36:39;;;;;;;2.78;1.00;;;;;;;14.94;100.00;100830.72;10364251;28;20517;-75
2023/03/29 16:41:40;;;;;;;6.45;1.83;;;;;;;14.83;100.00;100818.97;10346946;28;20046;-74
2023/03/29 16:46:40;;;;;;;5.25;1.27;;;;;;;14.74;100.00;100814.34;10345861;28;20484;-74
2023/03/29 16:51:41;;;;;;;5.78;1.98;;;;;;;14.76;100.00;100804.72;10374958;28;20082;-74
2023/03/29 16:56:41;;;;;;;2.92;1.85;;;;;;;14.62;100.00;100795.50;10404578;28;20536;-74
2023/03/29 17:01:42;;;;;;;3.40;1.00;;;;;;;14.39;100.00;100798.31;10382969;28;20061;-74
2023/03/29 17:06:43;;;;;;;2.72;1.45;;;;;;;14.26;100.00;100799.66;10355183;28;20416;-73
2023/03/29 17:11:43;;;;;;;1.98;0.95;;;;;;;14.21;100.00;100802.16;10378306;28;20145;-76
2023/03/29 17:16:45;;;;;;;6.90;2.47;;;;;;;14.05;100.00;100792.88;10320104;28;20498;-76
2023/03/29 17:21:45;;;;;;;3.28;2.08;;;;;;;14.04;100.00;100795.47;10381866;28;20045;-76
2023/03/29 17:26:49;;;;;;;5.95;3.00;;;;;;;14.15;100.00;100785.28;10357441;28;20117;-76
2023/03/29 17:31:49;;;;;;;3.63;1.60;;;;;;;14.12;100.00;100793.97;10382096;28;20503;-73
2023/03/29 17:36:52;;;;;;;2.65;1.60;;;;;;;14.13;100.00;100787.88;10381562;28;20131;-75
2023/03/29 17:41:52;;;;;;;;;;;;;;;13.98;100.00;100785.63;10332730;28;20451;-76
2023/03/29 17:46:53;;;;;;;7.10;2.15;;;;;;;13.86;100.00;100783.50;10318816;28;19925;-74
2023/03/29 17:51:53;;;;;;;4.65;2.15;;;;;;;13.76;100.00;100779.66;10326119;28;20041;-75
2023/03/29 17:56:54;;;;;;;3.97;1.80;;;;;;;13.61;100.00;100773.88;10320345;28;20062;-74
2023/03/29 18:01:56;;;;;;;8.13;2.95;;;;;;;13.50;100.00;100777.03;10319660;28;20034;-75
2023/03/29 18:06:56;;;;;;;5.13;3.28;;;;;;;13.38;100.00;100768.69;10320082;28;20043;-74
2023/03/29 18:11:57;;;;;;;4.20;2.78;;;;;;;13.28;100.00;100766.59;10316910;28;20042;-74
2023/03/29 18:16:57;;;;;;;12.70;4.85;;;;;;;13.29;100.00;100764.03;10322147;28;20038;-74
2023/03/29 18:21:58;;;;;;;6.05;3.03;;;;;;;13.21;100.00;100757.63;10325075;28;20494;-75
2023/03/29 18:26:58;;;;;;;3.80;2.40;;;;;;;13.19;100.00;100754.91;10335841;28;20120;-74
2023/03/29 18:32:01;;;;;;;5.32;2.70;;;;;;;13.05;100.00;100743.94;10352951;28;20065;-78
2023/03/29 18:37:02;;;;;;;10.13;3.55;;;;;;;12.86;100.00;100752.88;10287840;28;20525;-75
2023/03/29 18:42:03;;;;;;;5.83;2.80;;;;;;;12.81;100.00;100748.31;10337027;28;20108;-75
2023/03/29 18:47:04;;;;;;;8.07;3.80;;;;;;;12.68;100.00;100741.69;10332615;28;20593;-76
2023/03/29 18:52:04;;;;;;;13.50;4.80;;;;;;;12.64;100.00;100738.06;10323223;28;20133;-76
2023/03/29 18:57:05;;;;;;;11.27;4.45;;;;;;;12.44;100.00;100734.69;10343390;28;20473;-78
2023/03/29 19:02:06;;;;;;;6.32;2.75;;;;;;;12.14;100.00;100744.06;10324044;28;20121;-76
2023/03/29 19:07:10;;;;;;;8.43;6.00;;;;;;;11.85;100.00;100738.53;10319792;28;20060;-76
2023/03/29 19:12:10;;;;;;;7.47;2.80;;;;;;;11.68;100.00;100729.97;10361474;28;20038;-76
2023/03/29 19:17:11;;;;;;;6.93;2.97;;;;;;;11.61;100.00;100727.94;10358661;28;20140;-76
2023/03/29 19:22:11;;;;;;;8.90;3.35;;;;;;;11.39;100.00;100720.91;10356175;28;20449;-75
2023/03/29 19:27:12;;;;;;;6.82;3.00;;;;;;;11.23;100.00;100727.22;10373068;28;20121;-75
2023/03/29 19:32:12;;;;;;;9.07;3.92;;;;;;;11.09;100.00;100717.03;10357785;28;20400;-75
2023/03/29 19:37:14;;;;;;;12.48;2.40;;;;;;;10.95;100.00;100721.69;10374247;28;20096;-75
2023/03/29 19:42:16;;;;;;;5.50;3.22;;;;;;;10.94;100.00;100709.44;10357386;28;20133;-75
2023/03/29 19:47:16;;;;;;;4.22;2.35;;;;;;;10.92;100.00;100698.00;10336576;28;20393;-75
2023/03/29 19:52:18;;;;;;;10.30;5.13;;;;;;;10.80;100.00;100700.94;10304572;28;20100;-77
2023/03/29 19:57:18;;;;;;;9.77;4.10;;;;;;;10.53;100.00;100695.41;10362475;28;20133;-75
2023/03/29 20:02:19;;;;;;;17.90;10.43;;;;;;;10.40;100.00;100694.84;10354278;28;20042;-76
2023/03/29 20:07:20;;;;;;;9.20;3.95;;;;;;;10.21;100.00;100690.44;10337603;28;20139;-75
2023/03/29 20:12:20;;;;;;;7.88;3.05;;;;;;;10.06;100.00;100672.34;10357810;28;20153;-75
2023/03/29 20:17:21;;;;;;;9.07;3.85;;;;;;;9.89;100.00;100660.19;10359331;28;20121;-76
2023/03/29 20:22:24;;;;;;;10.77;4.07;;;;;;;9.82;100.00;100662.50;10364476;28;20065;-76
2023/03/29 20:27:28;;;;;;;12.05;7.88;;;;;;;9.72;100.00;100651.53;10363592;28;20120;-75
2023/03/29 20:32:28;;;;;;;7.50;3.90;;;;;;;9.81;100.00;100645.03;10364209;28;20061;-76
2023/03/29 20:37:29;;;;;;;8.90;3.10;;;;;;;9.72;100.00;100635.84;10353033;28;20125;-75
2023/03/29 20:42:33;;;;;;;7.82;4.15;;;;;;;9.74;100.00;100628.97;10366216;28;20042;-75
2023/03/29 20:47:40;;;;;;;6.75;3.22;;;;;;;9.74;100.00;100619.44;10371858;28;20026;-75
2023/03/29 20:52:41;;;;;;;9.45;4.00;;;;;;;9.66;100.00;100610.34;10405953;28;20045;-75
2023/03/29 20:57:41;;;;;;;7.93;3.25;;;;;;;9.66;100.00;100610.34;10366826;28;20120;-75
2023/03/29 21:02:43;;;;;;;6.75;3.85;;;;;;;9.61;100.00;100604.00;10363458;28;20500;-75
2023/03/29 21:07:43;;;;;;;5.38;2.97;;;;;;;9.64;100.00;100594.56;10396674;28;20033;-74
2023/03/29 21:12:44;;;;;;;5.10;2.97;;;;;;;9.54;100.00;100576.69;10346687;28;20037;-74
2023/03/29 21:17:44;;;;;;;7.55;3.40;;;;;;;9.63;100.00;100561.44;10362020;28;20073;-75
2023/03/29 21:22:45;;;;;;;9.18;3.33;;;;;;;9.52;100.00;100568.78;10380115;28;20065;-75
2023/03/29 21:27:45;;;;;;;6.00;3.00;;;;;;;9.40;100.00;100562.97;10352783;28;20521;-75
2023/03/29 21:32:46;;;;;;;6.30;3.05;;;;;;;9.19;100.00;100563.75;10362178;28;20125;-75
2023/03/29 21:37:46;;;;;;;8.93;4.43;;;;;;;9.20;100.00;100568.13;10361637;28;20124;-75
2023/03/29 21:42:47;;;;;;;9.35;4.07;;;;;;;9.22;100.00;100555.16;10404189;28;20397;-75
2023/03/29 21:47:47;;;;;;;10.88;4.07;;;;;;;9.22;100.00;100560.38;10375103;28;20545;-75
2023/03/29 21:52:48;;;;;;;9.80;3.25;;;;;;;9.28;100.00;100562.38;10361926;28;20034;-75
2023/03/29 21:57:48;;;;;;;7.55;3.72;;;;;;;9.10;100.00;100552.84;10361968;28;20068;-74
2023/03/29 22:02:49;;;;;;;4.85;3.05;;;;;;;9.10;100.00;100551.13;10361861;28;20038;-75
2023/03/29 22:07:49;;;;;;;11.52;3.55;;;;;;;9.43;100.00;100543.94;10360787;28;20065;-75
2023/03/29 22:12:50;;;;;;;6.68;3.55;;;;;;;9.40;100.00;100527.28;10362702;28;20497;-75
2023/03/29 22:17:52;;;;;;;8.90;4.18;;;;;;;9.39;100.00;100520.28;10344224;28;20034;-74
2023/03/29 22:22:52;;;;;;;22.55;14.45;;;;;;;9.35;100.00;100528.78;10360816;28;20045;-74
2023/03/29 22:27:53;;;;;;;5.57;2.88;;;;;;;9.42;100.00;100516.94;10358904;28;20565;-75
2023/03/29 22:32:53;;;;;;;10.27;3.58;;;;;;;9.60;100.00;100524.72;10395364;28;20055;-75
2023/03/29 22:37:54;;;;;;;5.85;2.55;;;;;;;9.67;100.00;100512.84;10360313;28;20400;-75
2023/03/29 22:42:54;;;;;;;4.72;2.15;;;;;;;9.80;100.00;100503.81;10375086;28;20160;-75
2023/03/29 22:47:55;;;;;;;9.60;3.00;;;;;;;9.92;100.00;100496.53;10375509;28;20120;-74
2023/03/29 22:52:55;;;;;;;12.88;3.03;;;;;;;10.07;100.00;100482.34;10344381;28;20037;-74
2023/03/29 22:57:56;;;;;;;3.83;2.22;;;;;;;10.13;100.00;100479.97;10359099;28;20066;-75
2023/03/29 23:02:56;;;;;;;13.65;3.17;;;;;;;10.50;100.00;100476.34;10360769;28;20061;-75
2023/03/29 23:07:57;;;;;;;6.05;2.00;;;;;;;10.79;100.00;100476.66;10376443;28;20191;-75